^^
Paulen-Weather Station Historical Data
Daily Summary for June 21, 2022 Units:  Metric    English   Both
Daily Weekly Monthly Yearly Custom
  High: Low: Average:
Temperature: 16 °C 12 °C 13.4 °C
Dew Point: 10 °C 8 °C 8.5 °C
Humidity: 78% 59% 73%
Wind Speed: 11km/h 2km/h 6km/h
Wind Gust: 9km/h - -
Wind- - WSW
Pressure: 1009.28 hPa 1008.53 hPa -
Precipitation: 0 mm    
Historical Graphs
 
 
Tabular Data for June 21, 2022
Time Temperature Dew Point Pressure Wind Wind Speed Wind Gust Humidity Rainfall Rate (Hourly) solar
00:04 16 °C 8 °C 1009.25 hPa NNE 6 km/h 4 km/h 59% 0 mm 0 W/m2
00:09 16 °C 8 °C 1009.21 hPa NNE 7 km/h 4 km/h 60% 0 mm 0 W/m2
00:14 15 °C 8 °C 1009.21 hPa N 3 km/h 1 km/h 61% 0 mm 0 W/m2
00:19 15 °C 8 °C 1009.28 hPa N 3 km/h 2 km/h 62% 0 mm 0 W/m2
00:24 15 °C 8 °C 1009.28 hPa NNW 4 km/h 2 km/h 63% 0 mm 0 W/m2
00:29 15 °C 8 °C 1009.28 hPa N 3 km/h 2 km/h 64% 0 mm 0 W/m2
00:34 15 °C 8 °C 1009.28 hPa NNW 2 km/h 1 km/h 64% 0 mm 0 W/m2
00:39 15 °C 8 °C 1009.25 hPa NW 6 km/h 4 km/h 64% 0 mm 0 W/m2
00:44 15 °C 8 °C 1009.14 hPa NW 5 km/h 3 km/h 65% 0 mm 0 W/m2
00:49 15 °C 8 °C 1009.18 hPa NNW 5 km/h 4 km/h 65% 0 mm 0 W/m2
00:54 15 °C 9 °C 1009.18 hPa NNW 4 km/h 2 km/h 66% 0 mm 0 W/m2
00:59 15 °C 9 °C 1009.11 hPa NNW 6 km/h 4 km/h 66% 0 mm 0 W/m2
01:04 15 °C 9 °C 1009.08 hPa NNW 7 km/h 4 km/h 66% 0 mm 0 W/m2
01:09 15 °C 8 °C 1009.08 hPa N 3 km/h 1 km/h 66% 0 mm 0 W/m2
01:14 15 °C 8 °C 1009.04 hPa NNE 7 km/h 4 km/h 66% 0 mm 0 W/m2
01:19 15 °C 8 °C 1009.01 hPa NNE 4 km/h 5 km/h 66% 0 mm 0 W/m2
01:24 15 °C 8 °C 1009.01 hPa N 7 km/h 6 km/h 66% 0 mm 0 W/m2
01:29 15 °C 9 °C 1009.04 hPa NW 7 km/h 6 km/h 66% 0 mm 0 W/m2
01:34 15 °C 9 °C 1009.08 hPa NNW 11 km/h 9 km/h 68% 0 mm 0 W/m2
01:39 15 °C 9 °C 1009.11 hPa NNW 10 km/h 7 km/h 70% 0 mm 0 W/m2
01:44 14 °C 9 °C 1009.08 hPa NW 9 km/h 7 km/h 72% 0 mm 0 W/m2
01:49 14 °C 10 °C 1009.11 hPa NNW 7 km/h 5 km/h 73% 0 mm 0 W/m2
01:54 14 °C 9 °C 1009.11 hPa N 8 km/h 5 km/h 73% 0 mm 0 W/m2
01:59 14 °C 9 °C 1009.18 hPa NW 9 km/h 5 km/h 73% 0 mm 0 W/m2
02:04 14 °C 10 °C 1009.18 hPa NNW 8 km/h 5 km/h 75% 0 mm 0 W/m2
02:09 14 °C 10 °C 1009.08 hPa NNW 6 km/h 3 km/h 76% 0 mm 0 W/m2
02:14 14 °C 10 °C 1009.04 hPa NW 5 km/h 7 km/h 76% 0 mm 0 W/m2
02:19 14 °C 9 °C 1009.01 hPa NNW 9 km/h 7 km/h 76% 0 mm 0 W/m2
02:24 14 °C 9 °C 1008.97 hPa NNW 8 km/h 5 km/h 76% 0 mm 0 W/m2
02:29 14 °C 9 °C 1008.97 hPa NNW 7 km/h 5 km/h 76% 0 mm 0 W/m2
02:34 13 °C 9 °C 1009.04 hPa NNW 7 km/h 4 km/h 76% 0 mm 0 W/m2
02:39 13 °C 9 °C 1009.04 hPa NNW 8 km/h 5 km/h 77% 0 mm 0 W/m2
02:44 13 °C 9 °C 1008.94 hPa N 7 km/h 4 km/h 77% 0 mm 0 W/m2
02:49 13 °C 9 °C 1008.97 hPa N 8 km/h 6 km/h 76% 0 mm 0 W/m2
02:54 13 °C 9 °C 1008.97 hPa NNW 8 km/h 5 km/h 76% 0 mm 0 W/m2
02:59 13 °C 9 °C 1009.01 hPa N 6 km/h 3 km/h 75% 0 mm 0 W/m2
03:04 13 °C 9 °C 1008.94 hPa N 7 km/h 4 km/h 75% 0 mm 0 W/m2
03:09 13 °C 9 °C 1008.94 hPa N 6 km/h 4 km/h 75% 0 mm 0 W/m2
03:14 13 °C 9 °C 1008.94 hPa NNW 8 km/h 5 km/h 76% 0 mm 0 W/m2
03:19 13 °C 9 °C 1008.91 hPa N 9 km/h 5 km/h 76% 0 mm 0 W/m2
03:24 13 °C 9 °C 1009.01 hPa NNW 10 km/h 6 km/h 76% 0 mm 0 W/m2
03:29 13 °C 9 °C 1008.97 hPa NNW 10 km/h 7 km/h 77% 0 mm 0 W/m2
03:34 13 °C 9 °C 1008.94 hPa NNW 8 km/h 6 km/h 77% 0 mm 0 W/m2
03:39 13 °C 9 °C 1008.97 hPa N 7 km/h 5 km/h 77% 0 mm 0 W/m2
03:44 12 °C 9 °C 1008.97 hPa NNW 3 km/h 2 km/h 77% 0 mm 0 W/m2
03:49 12 °C 8 °C 1008.94 hPa NNW 5 km/h 4 km/h 77% 0 mm 0 W/m2
03:54 12 °C 8 °C 1008.94 hPa N 2 km/h 4 km/h 77% 0 mm 0 W/m2
03:59 12 °C 8 °C 1008.91 hPa NNE 3 km/h 1 km/h 77% 0 mm 0 W/m2
04:04 12 °C 8 °C 1008.91 hPa NNE 3 km/h 1 km/h 77% 0 mm 0 W/m2
04:09 12 °C 8 °C 1008.87 hPa N 3 km/h 3 km/h 77% 0 mm 0 W/m2
04:14 12 °C 8 °C 1008.84 hPa N 4 km/h 2 km/h 78% 0 mm 0 W/m2
04:19 12 °C 8 °C 1008.74 hPa NNW 6 km/h 4 km/h 78% 0 mm 5 W/m2
04:24 12 °C 8 °C 1008.77 hPa NNW 8 km/h 4 km/h 78% 0 mm 7 W/m2
04:29 12 °C 8 °C 1008.77 hPa NNW 5 km/h 5 km/h 78% 0 mm 7 W/m2
04:34 12 °C 8 °C 1008.81 hPa NNW 7 km/h 5 km/h 77% 0 mm 12 W/m2
04:39 12 °C 8 °C 1008.77 hPa NNW 4 km/h 2 km/h 77% 0 mm 16 W/m2
04:44 12 °C 8 °C 1008.81 hPa NNW 3 km/h 2 km/h 77% 0 mm 19 W/m2
04:49 12 °C 8 °C 1008.81 hPa N 5 km/h 3 km/h 77% 0 mm 23 W/m2
04:54 12 °C 8 °C 1008.84 hPa N 4 km/h 4 km/h 77% 0 mm 28 W/m2
04:59 12 °C 8 °C 1008.81 hPa NNW 4 km/h 2 km/h 76% 0 mm 33 W/m2
05:04 12 °C 8 °C 1008.77 hPa NNW 3 km/h 1 km/h 76% 0 mm 40 W/m2
05:09 12 °C 8 °C 1008.74 hPa NW 5 km/h 4 km/h 76% 0 mm 46 W/m2
05:14 12 °C 8 °C 1008.81 hPa NNW 5 km/h 3 km/h 76% 0 mm 53 W/m2
05:19 12 °C 8 °C 1008.91 hPa NNW 4 km/h 4 km/h 76% 0 mm 58 W/m2
05:24 12 °C 8 °C 1008.87 hPa NNW 5 km/h 4 km/h 75% 0 mm 65 W/m2
05:29 12 °C 8 °C 1008.77 hPa N 6 km/h 4 km/h 75% 0 mm 72 W/m2
05:34 12 °C 8 °C 1008.7 hPa N 5 km/h 3 km/h 75% 0 mm 70 W/m2
05:39 12 °C 8 °C 1008.6 hPa NNW 4 km/h 3 km/h 75% 0 mm 79 W/m2
05:44 12 °C 8 °C 1008.57 hPa NNW 3 km/h 1 km/h 75% 0 mm 84 W/m2
05:49 12 °C 8 °C 1008.6 hPa N 4 km/h 2 km/h 75% 0 mm 100 W/m2
05:54 13 °C 8 °C 1008.57 hPa N 3 km/h 1 km/h 75% 0 mm 114 W/m2
05:59 13 °C 8 °C 1008.6 hPa NNE 3 km/h 3 km/h 74% 0 mm 125 W/m2
06:04 13 °C 8 °C 1008.6 hPa N 5 km/h 3 km/h 73% 0 mm 134 W/m2
06:09 13 °C 8 °C 1008.67 hPa N 4 km/h 5 km/h 73% 0 mm 144 W/m2
06:14 13 °C 9 °C 1008.67 hPa N 6 km/h 5 km/h 73% 0 mm 158 W/m2
06:19 13 °C 9 °C 1008.64 hPa NNE 3 km/h 2 km/h 72% 0 mm 172 W/m2
06:24 14 °C 8 °C 1008.6 hPa NNE 8 km/h 5 km/h 71% 0 mm 186 W/m2
06:29 14 °C 9 °C 1008.6 hPa N 7 km/h 5 km/h 71% 0 mm 200 W/m2
06:34 14 °C 9 °C 1008.57 hPa N 9 km/h 6 km/h 71% 0 mm 213 W/m2
06:39 14 °C 9 °C 1008.53 hPa N 8 km/h 4 km/h 71% 0 mm 220 W/m2
06:44 14 °C 9 °C 1008.6 hPa N 11 km/h 8 km/h 70% 0 mm 227 W/m2
06:49 14 °C 9 °C 1008.64 hPa N 10 km/h 7 km/h 69% 0 mm 216 W/m2
06:54 14 °C 9 °C 1008.67 hPa N 10 km/h 5 km/h 70% 0 mm 206 W/m2
Compliments of Weather Underground - 2 mb